Time;durP1;ratioP1;P1;durP2;ratioP2;P2;SDS_P1;SDS_P2;PMS_P1;PMS_P2;Temp;Humidity;BMP_temperature;BMP_pressure;BME280_temperature;BME280_humidity;BME280_pressure;Samples;Min_cycle;Max_cycle;Signal;HPM_P1;HPM_P2
2023/01/28 00:01:29;;;;;;;9.57;5.15;;;34.20;95.70;;;;;;5020918;28;20502;-60
2023/01/28 00:03:56;;;;;;;11.60;5.45;;;34.10;92.10;;;;;;5030202;28;20108;-59
2023/01/28 00:06:23;;;;;;;8.82;5.28;;;33.70;90.40;;;;;;5030254;28;20136;-59
2023/01/28 00:08:50;;;;;;;8.90;4.65;;;33.80;94.00;;;;;;5030176;28;20018;-59
2023/01/28 00:11:18;;;;;;;12.48;5.32;;;34.10;92.00;;;;;;5030749;28;20032;-59
2023/01/28 00:13:45;;;;;;;9.60;5.50;;;34.40;93.10;;;;;;5030470;28;20045;-59
2023/01/28 00:16:12;;;;;;;9.55;5.80;;;34.00;92.50;;;;;;5030287;28;20022;-59
2023/01/28 00:18:40;;;;;;;10.27;6.00;;;34.00;90.20;;;;;;5029789;28;20688;-60
2023/01/28 00:21:09;;;;;;;9.05;6.30;;;34.00;88.80;;;;;;5029946;28;20490;-60
2023/01/28 00:23:39;;;;;;;8.50;6.15;;;34.00;91.80;;;;;;5029731;28;20028;-60
2023/01/28 00:26:15;;;;;;;10.65;6.75;;;34.40;92.00;;;;;;5010139;28;20034;-59
2023/01/28 00:28:44;;;;;;;9.48;6.13;;;34.70;90.40;;;;;;5010338;28;20014;-59
2023/01/28 00:31:23;;;;;;;10.25;6.60;;;35.10;90.40;;;;;;5010381;28;20034;-60
2023/01/28 00:33:52;;;;;;;12.50;6.75;;;34.80;86.90;;;;;;5010381;28;20067;-59
2023/01/28 00:36:21;;;;;;;11.98;6.85;;;34.60;89.90;;;;;;5013992;28;20033;-60
2023/01/28 00:38:54;;;;;;;10.32;6.28;;;34.50;84.10;;;;;;5014397;28;20041;-61
2023/01/28 00:41:23;;;;;;;12.43;7.15;;;34.40;89.20;;;;;;5014022;28;20487;-60
2023/01/28 00:43:51;;;;;;;14.95;6.97;;;34.70;90.90;;;;;;5014055;28;20037;-59
2023/01/28 00:46:20;;;;;;;9.85;5.63;;;34.90;87.10;;;;;;5013998;28;20018;-63
2023/01/28 00:48:48;;;;;;;8.10;6.07;;;34.50;82.80;;;;;;5014173;28;20022;-59
2023/01/28 00:51:17;;;;;;;9.95;7.25;;;34.30;86.20;;;;;;5014365;28;20033;-59
2023/01/28 00:53:44;;;;;;;11.02;6.45;;;34.20;87.50;;;;;;5014067;28;20065;-59
2023/01/28 00:56:14;;;;;;;10.43;6.68;;;34.00;86.70;;;;;;5014266;28;20021;-59
2023/01/28 00:58:43;;;;;;;12.90;6.88;;;34.20;86.30;;;;;;5013562;28;20442;-60
2023/01/28 01:01:11;;;;;;;13.20;7.05;;;34.10;86.90;;;;;;5015563;28;20034;-60
2023/01/28 01:03:39;;;;;;;9.60;5.95;;;33.70;86.80;;;;;;5013380;28;20037;-59
2023/01/28 01:06:07;;;;;;;11.25;6.15;;;33.70;91.70;;;;;;5013552;28;20017;-59
2023/01/28 01:08:41;;;;;;;7.93;6.03;;;34.10;91.80;;;;;;5013917;28;20068;-60
2023/01/28 01:11:11;;;;;;;11.00;6.30;;;34.50;90.00;;;;;;4996639;28;20029;-60
2023/01/28 01:13:38;;;;;;;12.40;6.38;;;35.00;83.80;;;;;;5014474;28;20125;-60
2023/01/28 01:16:09;;;;;;;11.13;6.28;;;35.00;80.30;;;;;;5033208;28;20406;-59
2023/01/28 01:18:40;;;;;;;9.80;5.68;;;34.90;86.70;;;;;;5032804;28;20099;-60
2023/01/28 01:21:14;;;;;;;9.13;5.78;;;35.00;90.00;;;;;;5033114;28;20022;-60
2023/01/28 01:23:40;;;;;;;;;;;35.10;82.60;;;;;;5033295;28;20060;-60
2023/01/28 01:26:08;;;;;;;11.75;6.03;;;35.10;79.70;;;;;;5033000;28;20321;-59
2023/01/28 01:28:36;;;;;;;11.88;6.78;;;34.70;80.90;;;;;;5032898;28;20021;-60
2023/01/28 01:31:06;;;;;;;9.88;6.25;;;35.00;83.80;;;;;;5032707;28;20017;-60
2023/01/28 01:33:34;;;;;;;10.63;5.88;;;35.40;85.60;;;;;;5032704;28;20053;-60
2023/01/28 01:36:02;;;;;;;13.65;6.30;;;35.70;84.20;;;;;;5032707;28;20076;-60
2023/01/28 01:38:29;;;;;;;9.45;6.18;;;35.90;81.80;;;;;;5032370;28;20033;-60
2023/01/28 01:40:58;;;;;;;11.63;6.00;;;35.90;80.10;;;;;;5032738;28;20032;-59
2023/01/28 01:43:45;;;;;;;10.63;5.82;;;36.10;81.30;;;;;;5032654;28;20026;-60
2023/01/28 01:46:15;;;;;;;6.40;4.82;;;35.90;80.10;;;;;;5031474;28;20025;-59
2023/01/28 01:48:42;;;;;;;8.82;4.88;;;36.00;76.20;;;;;;5032363;28;20451;-60
2023/01/28 01:51:13;;;;;;;7.68;5.20;;;36.10;76.40;;;;;;5032110;28;20032;-60
2023/01/28 01:53:47;;;;;;;7.15;5.50;;;36.20;78.10;;;;;;5032549;28;20541;-60
2023/01/28 01:56:18;;;;;;;10.73;5.78;;;36.20;75.30;;;;;;5032575;28;20071;-60
2023/01/28 01:58:49;;;;;;;8.93;6.07;;;35.90;72.10;;;;;;5032566;28;20038;-59
2023/01/28 02:01:23;;;;;;;8.35;6.25;;;35.70;76.60;;;;;;5021985;28;20075;-60
2023/01/28 02:04:02;;;;;;;8.82;5.05;;;36.00;80.00;;;;;;5012258;28;20022;-60
2023/01/28 02:06:31;;;;;;;9.10;5.55;;;36.20;78.10;;;;;;5012607;28;20035;-60
2023/01/28 02:08:58;;;;;;;8.57;5.95;;;35.90;73.10;;;;;;5013355;28;20044;-60
2023/01/28 02:11:30;;;;;;;8.90;5.75;;;36.00;78.80;;;;;;5012441;28;20519;-60
2023/01/28 02:14:02;;;;;;;9.25;5.80;;;36.40;78.10;;;;;;5012243;28;20065;-60
2023/01/28 02:16:30;;;;;;;11.75;6.97;;;36.10;71.90;;;;;;5012400;28;20026;-61
2023/01/28 02:18:57;;;;;;;11.75;6.10;;;36.10;73.40;;;;;;5011968;28;20402;-60
2023/01/28 02:21:43;;;;;;;10.07;5.85;;;36.20;79.60;;;;;;5012036;28;20391;-60
2023/01/28 02:24:44;;;;;;;14.13;6.50;;;36.30;73.30;;;;;;5012167;28;20026;-60
2023/01/28 02:27:25;;;;;;;10.40;6.88;;;36.50;74.80;;;;;;5011992;28;20029;-61
2023/01/28 02:29:59;;;;;;;8.75;5.55;;;36.30;69.80;;;;;;5012258;28;20056;-60
2023/01/28 02:32:41;;;;;;;12.80;6.13;;;36.20;71.10;;;;;;5011836;28;20022;-60
2023/01/28 02:35:32;;;;;;;9.93;5.18;;;36.40;71.20;;;;;;5012179;28;20057;-61
2023/01/28 02:38:07;;;;;;;8.88;5.35;;;36.60;69.40;;;;;;5011758;28;20066;-61
2023/01/28 02:43:35;;;;;;;8.40;5.00;;;36.90;71.20;;;;;;5031558;28;20124;-61
2023/01/28 02:48:59;;;;;;;7.97;5.53;;;37.30;65.80;;;;;;5031296;28;20505;-61
2023/01/28 02:51:33;;;;;;;23.38;8.57;;;37.20;65.50;;;;;;5031306;28;20059;-61
2023/01/28 02:54:39;;;;;;;20.52;10.48;;;37.10;67.30;;;;;;5031101;28;20056;-61
2023/01/28 02:57:42;;;;;;;10.13;5.53;;;37.00;67.10;;;;;;5031079;28;20030;-61
2023/01/28 03:00:22;;;;;;;9.47;5.47;;;37.20;69.20;;;;;;5031296;28;20057;-61
2023/01/28 03:03:14;;;;;;;8.25;5.43;;;37.00;69.70;;;;;;5031591;28;20113;-61
2023/01/28 03:06:23;;;;;;;7.10;4.72;;;37.50;71.00;;;;;;5030936;28;20382;-61
2023/01/28 03:37:33;;;;;;;7.10;4.65;;;37.10;64.10;;;;;;5030805;28;20508;-61
2023/01/28 03:40:06;;;;;;;6.78;4.90;;;36.90;64.10;;;;;;5030623;28;20079;-61
2023/01/28 03:42:34;;;;;;;7.47;5.47;;;37.00;64.70;;;;;;5030613;28;20022;-61
2023/01/28 03:45:03;;;;;;;7.18;4.43;;;37.20;64.70;;;;;;5012602;28;20101;-61
2023/01/28 03:47:31;;;;;;;6.32;4.60;;;37.60;62.00;;;;;;5011432;28;20030;-61
2023/01/28 03:49:59;;;;;;;7.50;4.90;;;38.10;64.40;;;;;;5011726;28;20030;-61
2023/01/28 03:52:30;;;;;;;6.68;4.90;;;38.40;61.30;;;;;;4993183;28;20029;-61
2023/01/28 03:54:58;;;;;;;8.35;4.22;;;38.40;62.20;;;;;;5010666;28;20092;-61
2023/01/28 03:57:30;;;;;;;6.65;4.55;;;38.00;59.50;;;;;;5010338;28;20026;-61
2023/01/28 03:59:57;;;;;;;6.75;4.57;;;37.80;60.80;;;;;;5010552;28;20553;-61
2023/01/28 04:02:26;;;;;;;5.85;5.18;;;37.40;62.00;;;;;;5010754;28;20040;-61
2023/01/28 04:04:53;;;;;;;6.30;4.70;;;37.70;62.90;;;;;;5010913;28;20034;-61
2023/01/28 04:07:20;;;;;;;8.70;4.90;;;38.00;64.00;;;;;;5010932;28;20022;-61
2023/01/28 04:09:47;;;;;;;6.97;5.28;;;38.20;62.90;;;;;;5012076;28;20113;-61
2023/01/28 04:12:15;;;;;;;7.50;5.05;;;38.60;59.90;;;;;;5014470;28;20052;-61
2023/01/28 04:14:43;;;;;;;6.93;4.97;;;38.40;60.60;;;;;;5014472;28;20072;-61
2023/01/28 04:17:10;;;;;;;6.50;4.93;;;38.20;60.90;;;;;;5014515;28;20097;-61
2023/01/28 04:19:37;;;;;;;7.32;5.10;;;37.60;62.10;;;;;;5025863;28;20037;-61
2023/01/28 04:22:07;;;;;;;9.95;5.13;;;37.00;62.60;;;;;;4994661;28;20066;-61
2023/01/28 04:24:34;;;;;;;7.07;5.30;;;36.30;63.00;;;;;;4994725;28;20527;-61
2023/01/28 04:27:02;;;;;;;9.13;5.20;;;36.10;65.10;;;;;;4994649;28;20069;-61
2023/01/28 04:29:30;;;;;;;8.57;5.68;;;36.40;67.80;;;;;;4994700;28;20026;-61
2023/01/28 04:31:57;;;;;;;7.97;5.30;;;36.60;65.60;;;;;;4994608;28;20073;-62
2023/01/28 04:34:25;;;;;;;9.70;4.78;;;36.90;64.30;;;;;;5020893;28;20053;-61
2023/01/28 04:36:52;;;;;;;9.18;5.32;;;37.20;68.70;;;;;;5033649;28;20017;-61
2023/01/28 04:39:19;;;;;;;7.90;4.68;;;36.90;68.90;;;;;;5034019;28;20390;-61
2023/01/28 04:41:46;;;;;;;8.10;4.10;;;36.30;71.10;;;;;;5033821;28;20096;-61
2023/01/28 04:44:16;;;;;;;12.40;5.25;;;35.60;72.70;;;;;;5033874;28;20731;-61
2023/01/28 04:46:43;;;;;;;8.27;4.38;;;35.30;74.40;;;;;;5033695;28;20053;-61
2023/01/28 04:49:10;;;;;;;11.38;5.70;;;35.00;75.30;;;;;;5015746;28;20112;-61
2023/01/28 04:51:37;;;;;;;8.10;5.32;;;34.70;77.00;;;;;;5033668;28;20017;-61
2023/01/28 04:54:05;;;;;;;7.78;4.47;;;34.40;77.20;;;;;;5033261;28;20041;-61
2023/01/28 04:56:32;;;;;;;7.03;4.82;;;34.10;78.30;;;;;;5033611;28;20024;-61
2023/01/28 04:59:01;;;;;;;10.43;4.90;;;34.20;79.90;;;;;;5033450;28;20029;-61
2023/01/28 05:01:29;;;;;;;9.35;4.95;;;34.30;80.80;;;;;;5033470;28;20033;-61
2023/01/28 05:03:56;;;;;;;8.10;4.40;;;34.40;80.10;;;;;;5033470;28;20040;-61
2023/01/28 05:06:23;;;;;;;8.20;4.18;;;34.30;79.80;;;;;;5033697;28;20412;-61
2023/01/28 05:08:51;;;;;;;7.88;4.35;;;34.30;81.30;;;;;;5034101;28;20498;-61
2023/01/28 05:11:18;;;;;;;5.90;3.90;;;34.60;80.30;;;;;;5033328;28;20402;-61
2023/01/28 05:13:46;;;;;;;12.95;4.45;;;34.80;79.00;;;;;;5032836;28;20494;-61
2023/01/28 05:16:13;;;;;;;8.75;3.67;;;34.90;79.10;;;;;;5033284;28;20022;-61
2023/01/28 05:18:40;;;;;;;6.53;3.38;;;35.00;78.60;;;;;;5032604;28;20053;-61
2023/01/28 05:21:08;;;;;;;8.55;3.15;;;35.10;80.60;;;;;;5032855;28;20026;-62
2023/01/28 05:23:35;;;;;;;8.38;3.03;;;35.10;79.50;;;;;;5025500;28;20029;-61
2023/01/28 05:26:02;;;;;;;9.60;3.35;;;34.90;79.20;;;;;;5013368;28;20104;-61
2023/01/28 05:28:30;;;;;;;7.32;3.88;;;34.60;80.70;;;;;;5013180;28;20391;-61
2023/01/28 05:31:02;;;;;;;7.05;3.00;;;34.60;82.20;;;;;;4995676;28;20030;-62
2023/01/28 05:33:29;;;;;;;6.20;2.60;;;34.70;81.50;;;;;;5013135;28;20169;-61
2023/01/28 05:35:57;;;;;;;11.43;2.92;;;34.60;82.50;;;;;;5013064;28;20498;-61
2023/01/28 05:38:24;;;;;;;7.35;2.45;;;34.20;83.50;;;;;;5013375;28;20041;-61
2023/01/28 05:40:51;;;;;;;7.95;3.15;;;33.80;85.40;;;;;;5013379;28;20061;-61
2023/01/28 05:43:18;;;;;;;10.38;3.13;;;33.90;87.90;;;;;;5012947;28;20025;-61
2023/01/28 05:45:47;;;;;;;6.68;3.63;;;33.70;87.50;;;;;;5012972;28;20029;-61
2023/01/28 05:48:15;;;;;;;6.95;2.60;;;33.80;88.80;;;;;;5015421;28;20399;-61
2023/01/28 05:50:42;;;;;;;7.70;2.67;;;34.00;89.10;;;;;;5032409;28;20104;-61
2023/01/28 05:53:09;;;;;;;4.93;2.38;;;34.10;87.90;;;;;;5032444;28;20113;-61
2023/01/28 05:55:37;;;;;;;6.70;3.50;;;34.00;87.90;;;;;;5032557;28;20021;-61
2023/01/28 05:58:04;;;;;;;9.93;2.83;;;34.00;87.90;;;;;;5016594;28;20034;-62
2023/01/28 06:00:31;;;;;;;6.43;2.55;;;33.80;88.10;;;;;;5012473;28;20386;-62
2023/01/28 06:02:59;;;;;;;18.08;2.47;;;33.50;89.30;;;;;;5012467;28;20033;-62
2023/01/28 06:05:26;;;;;;;7.60;2.83;;;33.40;90.10;;;;;;4995199;28;20109;-62
2023/01/28 06:07:53;;;;;;;6.25;2.92;;;33.30;90.30;;;;;;5012999;28;20561;-61
2023/01/28 06:10:20;;;;;;;7.53;2.95;;;33.00;90.70;;;;;;5012533;28;20044;-61
2023/01/28 06:12:48;;;;;;;5.38;2.33;;;33.00;91.70;;;;;;5012177;28;20034;-61
2023/01/28 06:15:15;;;;;;;7.35;2.30;;;33.20;91.90;;;;;;5012404;28;20092;-61
2023/01/28 06:17:43;;;;;;;8.60;2.30;;;33.20;91.40;;;;;;5012100;28;20034;-61
2023/01/28 06:20:10;;;;;;;9.05;2.83;;;33.20;90.80;;;;;;5012193;28;20029;-61
2023/01/28 06:22:38;;;;;;;6.50;2.03;;;33.10;90.00;;;;;;5012114;28;20018;-61
2023/01/28 06:25:06;;;;;;;11.27;2.33;;;32.80;90.90;;;;;;5012255;28;20022;-61
2023/01/28 06:27:33;;;;;;;6.05;1.92;;;32.80;90.80;;;;;;5012317;28;20379;-61
2023/01/28 06:30:00;;;;;;;6.43;2.47;;;32.90;90.90;;;;;;4994515;28;20553;-61
2023/01/28 06:32:28;;;;;;;8.07;2.40;;;32.90;91.10;;;;;;5011271;28;20034;-61
2023/01/28 06:34:56;;;;;;;7.25;1.77;;;33.10;91.00;;;;;;5012506;28;20652;-61
2023/01/28 06:37:23;;;;;;;6.50;2.03;;;33.40;90.10;;;;;;5012175;28;20060;-61
2023/01/28 06:39:50;;;;;;;8.65;2.10;;;33.30;88.10;;;;;;4994245;28;20038;-61
2023/01/28 06:42:18;;;;;;;7.85;1.90;;;33.20;89.50;;;;;;5011920;28;20076;-61
2023/01/28 06:44:45;;;;;;;6.47;2.40;;;33.10;89.60;;;;;;5012068;28;20030;-61
2023/01/28 06:47:14;;;;;;;5.15;1.90;;;32.90;88.90;;;;;;5011635;28;20029;-61
2023/01/28 06:49:41;;;;;;;4.57;1.92;;;32.70;89.90;;;;;;5011986;28;20033;-61
2023/01/28 06:52:09;;;;;;;8.75;2.38;;;32.80;90.70;;;;;;5011652;28;20040;-61
2023/01/28 06:54:36;;;;;;;5.32;1.73;;;32.90;90.60;;;;;;5011727;28;20487;-61
2023/01/28 06:57:03;;;;;;;7.10;1.73;;;32.90;90.30;;;;;;5018166;28;20022;-61
2023/01/28 06:59:31;;;;;;;9.00;2.78;;;32.90;90.20;;;;;;5031310;28;20033;-61
2023/01/28 07:01:58;;;;;;;8.02;1.92;;;32.70;90.70;;;;;;5030962;28;20017;-61
2023/01/28 07:04:25;;;;;;;8.63;2.50;;;32.60;91.20;;;;;;5015550;28;20034;-61
2023/01/28 07:06:53;;;;;;;13.27;2.72;;;32.30;92.00;;;;;;5011783;28;20026;-61
2023/01/28 07:09:20;;;;;;;6.18;2.03;;;32.20;92.60;;;;;;5011425;28;20029;-61
2023/01/28 07:11:47;;;;;;;5.68;1.92;;;32.00;93.10;;;;;;5011373;28;20018;-61
2023/01/28 07:14:15;;;;;;;4.28;1.58;;;32.10;93.20;;;;;;5011157;28;20048;-61
2023/01/28 07:16:42;;;;;;;6.38;1.88;;;32.10;93.50;;;;;;5011168;28;20031;-61
2023/01/28 07:19:09;;;;;;;4.05;2.00;;;32.10;93.60;;;;;;5014683;28;20089;-61
2023/01/28 07:21:37;;;;;;;8.07;2.13;;;32.30;93.80;;;;;;5011199;28;20487;-61
2023/01/28 07:24:05;;;;;;;7.85;2.00;;;32.40;92.70;;;;;;5011033;28;20030;-61
2023/01/28 07:26:32;;;;;;;7.45;2.30;;;32.50;91.40;;;;;;5011090;28;20022;-61
2023/01/28 07:28:59;;;;;;;8.95;2.65;;;32.60;91.70;;;;;;5023636;28;20509;-61
2023/01/28 07:31:27;;;;;;;5.85;1.80;;;32.70;91.40;;;;;;5030800;28;20032;-61
2023/01/28 07:33:54;;;;;;;6.03;2.22;;;32.70;91.50;;;;;;5031264;28;20029;-61
2023/01/28 07:36:21;;;;;;;7.97;1.77;;;32.60;91.30;;;;;;5030866;28;20033;-60
2023/01/28 07:38:48;;;;;;;5.97;2.10;;;32.40;91.80;;;;;;5030607;28;20120;-61
2023/01/28 07:41:16;;;;;;;9.25;2.92;;;32.20;92.10;;;;;;5030597;28;20052;-60
2023/01/28 07:43:43;;;;;;;8.00;2.92;;;31.80;93.00;;;;;;5030540;28;20030;-60
2023/01/28 07:46:10;;;;;;;8.73;2.47;;;31.60;94.20;;;;;;5030504;28;20021;-61
2023/01/28 07:48:37;;;;;;;8.15;2.22;;;31.40;95.00;;;;;;5029801;28;20025;-61
2023/01/28 07:51:05;;;;;;;7.55;2.28;;;31.20;96.00;;;;;;5030595;28;20022;-61
2023/01/28 07:53:33;;;;;;;10.20;2.50;;;31.10;96.50;;;;;;5017320;28;20387;-61
2023/01/28 07:56:01;;;;;;;8.38;1.98;;;31.10;97.30;;;;;;5010641;28;20049;-61
2023/01/28 07:58:28;;;;;;;8.57;2.42;;;31.00;97.90;;;;;;5010397;28;20038;-61
2023/01/28 08:00:59;;;;;;;9.55;1.98;;;31.00;98.60;;;;;;5011148;28;20026;-60
2023/01/28 08:03:28;;;;;;;11.18;2.40;;;31.00;98.80;;;;;;5010662;28;20501;-61
2023/01/28 08:05:56;;;;;;;12.02;3.10;;;30.90;99.20;;;;;;5009846;28;20041;-60
2023/01/28 08:08:28;;;;;;;8.77;2.15;;;30.70;99.90;;;;;;5012233;28;20022;-60
2023/01/28 08:10:56;;;;;;;5.70;1.80;;;30.60;99.90;;;;;;5030588;28;20421;-60
2023/01/28 08:13:23;;;;;;;9.55;2.22;;;30.40;99.90;;;;;;5030315;28;20042;-60
2023/01/28 08:15:55;;;;;;;9.43;2.75;;;30.30;99.90;;;;;;5030216;28;20494;-60
2023/01/28 08:18:23;;;;;;;8.30;2.17;;;30.10;99.90;;;;;;5030162;28;20056;-61
2023/01/28 08:20:55;;;;;;;8.43;2.25;;;30.10;99.90;;;;;;5012744;28;20427;-60
2023/01/28 08:23:23;;;;;;;6.97;2.22;;;30.00;99.90;;;;;;5030490;28;20101;-60
2023/01/28 08:25:50;;;;;;;9.80;2.13;;;29.90;99.90;;;;;;5030152;28;20533;-60
2023/01/28 08:28:17;;;;;;;12.95;2.95;;;29.80;99.90;;;;;;5030172;28;20080;-60
2023/01/28 08:30:45;;;;;;;10.55;3.03;;;29.70;99.90;;;;;;5030218;28;20021;-60
2023/01/28 08:33:15;;;;;;;9.55;3.53;;;29.60;99.90;;;;;;5029878;28;20028;-60
2023/01/28 08:35:42;;;;;;;6.63;2.13;;;29.50;99.90;;;;;;5029933;28;20017;-60
2023/01/28 08:38:12;;;;;;;11.20;2.60;;;29.40;99.90;;;;;;5029913;28;20033;-60
2023/01/28 08:40:39;;;;;;;12.30;2.60;;;29.30;99.90;;;;;;4996400;28;20499;-60
2023/01/28 08:43:07;;;;;;;10.38;2.17;;;29.30;99.90;;;;;;5019979;28;20038;-60
2023/01/28 08:45:34;;;;;;;7.97;2.10;;;29.20;99.90;;;;;;5030055;28;20360;-60
2023/01/28 08:48:04;;;;;;;9.18;2.10;;;29.10;99.90;;;;;;5029861;28;20076;-61
2023/01/28 08:50:37;;;;;;;7.53;2.00;;;29.10;99.90;;;;;;5029981;28;20395;-60
2023/01/28 08:53:07;;;;;;;6.93;1.90;;;29.00;99.90;;;;;;5030038;28;20025;-60
2023/01/28 08:55:35;;;;;;;5.72;2.30;;;28.90;99.90;;;;;;5031119;28;20060;-60
2023/01/28 08:58:03;;;;;;;8.80;3.00;;;28.80;99.90;;;;;;5015704;28;20029;-60
2023/01/28 09:00:31;;;;;;;9.10;2.28;;;28.70;99.90;;;;;;5033434;28;20549;-60
2023/01/28 09:02:58;;;;;;;6.93;2.70;;;28.70;99.90;;;;;;5029756;28;20079;-60
2023/01/28 09:05:26;;;;;;;7.30;2.67;;;28.60;99.90;;;;;;5014188;28;20075;-61
2023/01/28 09:07:53;;;;;;;10.75;2.67;;;28.50;99.90;;;;;;5014107;28;20551;-60
2023/01/28 09:10:20;;;;;;;11.77;2.35;;;28.40;99.90;;;;;;5013567;28;20026;-60
2023/01/28 09:12:48;;;;;;;9.70;2.65;;;28.30;99.90;;;;;;5013336;28;20525;-60
2023/01/28 09:15:16;;;;;;;13.93;2.35;;;28.20;99.90;;;;;;4996070;28;20065;-60
2023/01/28 09:17:44;;;;;;;12.48;2.30;;;28.20;99.90;;;;;;5020994;28;20412;-60
2023/01/28 09:20:12;;;;;;;11.80;2.35;;;28.10;99.90;;;;;;5033281;28;20036;-60
2023/01/28 09:22:40;;;;;;;6.22;2.00;;;28.00;99.90;;;;;;5033162;28;20112;-60
2023/01/28 09:25:07;;;;;;;11.80;2.13;;;27.80;99.90;;;;;;5033005;28;20398;-60
2023/01/28 09:27:35;;;;;;;8.95;2.30;;;27.80;99.90;;;;;;5032679;28;20087;-60
2023/01/28 09:30:03;;;;;;;11.20;2.45;;;27.70;99.90;;;;;;5033042;28;20059;-60
2023/01/28 09:32:30;;;;;;;9.82;2.53;;;27.70;99.90;;;;;;5027457;28;20028;-60
2023/01/28 09:34:58;;;;;;;14.50;3.15;;;27.60;99.90;;;;;;5013313;28;20013;-60
2023/01/28 09:37:25;;;;;;;16.48;3.30;;;27.50;99.90;;;;;;5013148;28;20394;-60
2023/01/28 09:39:52;;;;;;;12.90;2.35;;;27.50;99.90;;;;;;5013163;28;20038;-60
2023/01/28 09:42:40;;;;;;;10.57;2.30;;;27.50;99.90;;;;;;5012974;28;20498;-60
2023/01/28 09:45:16;;;;;;;5.82;1.80;;;27.40;99.90;;;;;;5013063;28;20045;-60
2023/01/28 09:47:47;;;;;;;6.47;2.70;;;27.30;99.90;;;;;;5012714;28;20101;-60
2023/01/28 09:50:37;;;;;;;9.85;2.10;;;27.30;99.90;;;;;;5012943;28;20018;-60
2023/01/28 09:53:20;;;;;;;7.68;2.13;;;27.20;99.90;;;;;;5012753;28;20028;-60
2023/01/28 09:56:09;;;;;;;9.25;2.45;;;27.10;99.90;;;;;;5013009;28;20021;-60
2023/01/28 09:58:36;;;;;;;5.88;1.98;;;27.00;99.90;;;;;;5005274;28;20427;-60
2023/01/28 10:01:12;;;;;;;10.95;2.53;;;27.00;99.90;;;;;;5012429;28;20045;-60
2023/01/28 10:04:04;;;;;;;7.18;2.33;;;26.90;99.90;;;;;;5012911;28;20029;-60
2023/01/28 10:06:49;;;;;;;7.18;1.77;;;26.80;99.90;;;;;;5011650;28;20079;-60
2023/01/28 10:09:16;;;;;;;9.88;2.30;;;26.80;99.90;;;;;;5012539;28;20045;-60
2023/01/28 10:12:09;;;;;;;14.02;3.35;;;26.80;99.90;;;;;;5012428;28;20352;-60
2023/01/28 10:14:49;;;;;;;12.02;2.30;;;26.70;99.90;;;;;;5012303;28;20048;-60
2023/01/28 10:17:26;;;;;;;11.80;2.20;;;26.70;99.90;;;;;;5015957;28;20120;-59
2023/01/28 10:20:11;;;;;;;11.30;2.20;;;26.60;99.90;;;;;;5032228;28;20034;-60
2023/01/28 10:23:02;;;;;;;11.35;2.63;;;26.50;99.90;;;;;;5031744;28;20071;-60
2023/01/28 10:25:31;;;;;;;11.93;2.50;;;26.50;99.90;;;;;;5028768;28;20026;-60
2023/01/28 10:28:00;;;;;;;8.13;2.53;;;26.50;99.90;;;;;;5012224;28;20068;-61
2023/01/28 10:30:33;;;;;;;9.32;2.30;;;26.50;99.90;;;;;;5012447;28;20382;-60
2023/01/28 10:33:03;;;;;;;7.97;2.28;;;26.40;99.90;;;;;;5012194;28;20498;-60
2023/01/28 10:35:49;;;;;;;12.23;2.88;;;26.30;99.90;;;;;;5011960;28;20022;-60
2023/01/28 10:38:23;;;;;;;13.00;2.30;;;26.30;99.90;;;;;;5011830;28;20038;-60
2023/01/28 10:40:51;;;;;;;11.80;2.47;;;26.20;99.90;;;;;;5030824;28;20068;-60
2023/01/28 10:43:24;;;;;;;14.38;2.40;;;26.20;99.90;;;;;;5031793;28;20083;-60
2023/01/28 10:46:15;;;;;;;6.93;2.13;;;26.20;99.90;;;;;;5031549;28;20545;-60
2023/01/28 10:48:56;;;;;;;8.00;2.40;;;26.10;99.90;;;;;;5021560;28;20030;-60
2023/01/28 10:51:38;;;;;;;8.93;3.10;;;26.10;99.90;;;;;;4994352;28;20033;-60
2023/01/28 10:54:23;;;;;;;8.63;2.50;;;26.10;99.90;;;;;;5011661;28;20026;-60
2023/01/28 10:57:03;;;;;;;9.75;2.47;;;26.00;99.90;;;;;;5011364;28;20682;-60
2023/01/28 10:59:35;;;;;;;10.15;2.70;;;26.00;99.90;;;;;;5011611;28;20038;-60
2023/01/28 11:02:18;;;;;;;7.82;2.30;;;26.00;99.90;;;;;;5011533;28;20045;-60
2023/01/28 11:04:45;;;;;;;10.63;3.00;;;25.90;99.90;;;;;;5011516;28;20029;-60
2023/01/28 11:07:18;;;;;;;11.35;2.30;;;25.80;99.90;;;;;;5011423;28;20029;-60
2023/01/28 11:09:49;;;;;;;9.20;2.10;;;25.80;99.90;;;;;;4991945;28;20034;-61
2023/01/28 11:12:25;;;;;;;9.30;2.65;;;25.70;99.90;;;;;;4996039;28;20061;-60
2023/01/28 11:15:05;;;;;;;8.50;2.03;;;25.70;99.90;;;;;;5021160;28;20041;-60
2023/01/28 11:17:35;;;;;;;15.63;2.40;;;25.60;99.90;;;;;;5030858;28;20056;-60
2023/01/28 11:20:12;;;;;;;10.63;2.83;;;25.60;99.90;;;;;;5027979;28;20048;-59
2023/01/28 11:22:42;;;;;;;12.82;2.55;;;25.60;99.90;;;;;;5011165;28;20382;-59
2023/01/28 11:25:35;;;;;;;10.50;3.45;;;25.50;99.90;;;;;;5009022;28;20108;-58
2023/01/28 11:28:30;;;;;;;16.27;3.38;;;25.50;99.90;;;;;;5022035;28;20483;-61
2023/01/28 11:30:59;;;;;;;5.22;2.05;;;25.50;99.90;;;;;;5026101;28;20042;-62
2023/01/28 11:33:47;;;;;;;10.63;2.45;;;25.40;99.90;;;;;;5008816;28;20025;-61
2023/01/28 11:36:15;;;;;;;12.82;2.20;;;25.40;99.90;;;;;;5013881;28;20014;-62
2023/01/28 11:38:53;;;;;;;12.48;2.95;;;25.40;99.90;;;;;;4999911;28;20571;-63
2023/01/28 11:41:39;;;;;;;14.65;2.78;;;25.40;99.90;;;;;;5014343;28;20638;-64
2023/01/28 11:44:18;;;;;;;4.90;2.03;;;25.40;99.90;;;;;;5002225;28;20037;-63
2023/01/28 11:47:15;;;;;;;8.95;2.55;;;25.40;99.90;;;;;;5013210;28;20561;-65
2023/01/28 11:49:51;;;;;;;10.98;2.72;;;25.40;99.90;;;;;;5005986;28;20022;-64
2023/01/28 11:52:40;;;;;;;6.53;2.33;;;25.30;99.90;;;;;;5017289;28;20033;-63
2023/01/28 11:55:27;;;;;;;10.90;2.70;;;25.30;99.90;;;;;;4990346;28;20025;-63
2023/01/28 11:58:32;;;;;;;12.38;2.40;;;25.30;99.90;;;;;;5007836;28;20061;-61
2023/01/28 12:01:34;;;;;;;;;;;25.30;99.90;;;;;;5005938;28;20096;-61
2023/01/28 12:04:32;;;;;;;10.13;2.50;;;25.30;99.90;;;;;;4947206;28;19958;-60
2023/01/28 12:07:19;;;;;;;13.20;4.07;;;25.30;99.90;;;;;;5012142;28;20025;-61
2023/01/28 12:10:12;;;;;;;12.82;2.53;;;25.30;99.90;;;;;;4984615;28;20065;-61
2023/01/28 12:12:48;;;;;;;10.32;2.50;;;25.20;99.90;;;;;;5018921;28;20133;-60
2023/01/28 12:15:40;;;;;;;8.93;2.20;;;25.10;99.90;;;;;;5027305;28;20397;-61
2023/01/28 12:18:22;;;;;;;15.95;3.38;;;25.10;99.90;;;;;;5022914;28;20040;-61
2023/01/28 12:21:30;;;;;;;16.88;7.47;;;25.10;99.90;;;;;;5008153;28;20072;-60
2023/01/28 12:24:34;;;;;;;16.63;4.00;;;25.20;99.90;;;;;;5016761;28;20026;-60
2023/01/28 12:27:26;;;;;;;25.00;9.77;;;25.20;99.90;;;;;;5027794;28;20072;-61
2023/01/28 12:29:59;;;;;;;23.08;8.93;;;25.20;99.90;;;;;;5012251;28;20030;-61
2023/01/28 12:32:38;;;;;;;17.10;5.40;;;25.10;99.90;;;;;;5019012;28;20033;-61
2023/01/28 12:35:31;;;;;;;17.05;6.00;;;25.00;99.90;;;;;;5016455;28;20379;-61
2023/01/28 12:38:40;;;;;;;14.85;3.80;;;24.90;99.90;;;;;;5034138;28;20021;-63
2023/01/28 12:41:18;;;;;;;10.93;2.75;;;24.80;99.90;;;;;;5022445;28;20065;-61
2023/01/28 12:44:01;;;;;;;14.05;2.88;;;24.80;99.90;;;;;;5014582;28;20026;-61
2023/01/28 12:47:02;;;;;;;18.45;3.45;;;24.70;99.90;;;;;;5014122;28;20034;-61
2023/01/28 12:49:47;;;;;;;16.58;5.80;;;24.70;99.90;;;;;;5008209;28;20497;-61
2023/01/28 12:52:23;;;;;;;20.30;5.78;;;24.80;99.90;;;;;;5018785;28;20109;-61
2023/01/28 12:55:04;;;;;;;20.65;5.47;;;24.80;99.90;;;;;;5024094;28;20025;-61
2023/01/28 12:57:34;;;;;;;19.65;4.82;;;24.80;99.90;;;;;;5033501;28;20026;-61
2023/01/28 13:00:26;;;;;;;16.73;3.67;;;24.80;99.90;;;;;;5033214;28;20087;-61
2023/01/28 13:03:05;;;;;;;11.55;3.97;;;24.80;99.90;;;;;;5030144;28;20026;-61
2023/01/28 13:05:37;;;;;;;21.48;5.35;;;24.80;99.90;;;;;;5013510;28;20030;-61
2023/01/28 13:08:15;;;;;;;18.33;6.55;;;24.70;99.90;;;;;;5021736;28;20048;-61
2023/01/28 13:10:44;;;;;;;22.55;6.63;;;24.70;99.90;;;;;;5021582;28;20026;-61
2023/01/28 13:13:31;;;;;;;14.02;3.33;;;24.60;99.90;;;;;;5017150;28;20057;-59
2023/01/28 13:15:59;;;;;;;14.35;4.78;;;24.60;99.90;;;;;;5031115;28;20025;-61
2023/01/28 13:18:42;;;;;;;22.13;5.07;;;24.50;99.90;;;;;;5031440;28;20049;-61
2023/01/28 13:21:25;;;;;;;21.73;5.40;;;24.50;99.90;;;;;;5019136;28;20026;-60
2023/01/28 13:24:22;;;;;;;16.13;5.38;;;24.40;99.90;;;;;;5019100;28;20475;-61
2023/01/28 13:26:55;;;;;;;15.77;3.83;;;24.30;99.90;;;;;;5007642;28;20046;-61
2023/01/28 13:29:25;;;;;;;24.20;4.32;;;24.30;99.90;;;;;;4998635;28;20399;-61
2023/01/28 13:31:56;;;;;;;16.52;4.80;;;24.30;99.90;;;;;;5016732;28;20033;-61
2023/01/28 13:34:39;;;;;;;20.50;3.97;;;24.20;99.90;;;;;;5012728;28;20029;-61
2023/01/28 13:37:33;;;;;;;12.55;3.97;;;24.20;99.90;;;;;;5019234;28;20061;-61
2023/01/28 13:40:22;;;;;;;24.85;4.72;;;24.10;99.90;;;;;;5015159;28;20026;-61
2023/01/28 13:43:05;;;;;;;17.67;4.95;;;24.10;99.90;;;;;;5027556;28;20051;-61
2023/01/28 13:45:33;;;;;;;14.90;4.45;;;24.00;99.90;;;;;;5023271;28;20025;-61
2023/01/28 13:48:18;;;;;;;11.90;3.47;;;23.90;99.90;;;;;;5032310;28;20024;-61